sensor_id;sensor_type;location;lat;lon;timestamp;temperature;humidity
64143;DHT22;50437;51.970;5.904;2023-07-28T00:00:51;17.80;99.90
64143;DHT22;50437;51.970;5.904;2023-07-28T00:03:17;17.80;99.90
64143;DHT22;50437;51.970;5.904;2023-07-28T00:05:43;17.90;99.90
64143;DHT22;50437;51.970;5.904;2023-07-28T00:08:08;17.80;99.90
64143;DHT22;50437;51.970;5.904;2023-07-28T00:10:39;17.80;99.90
64143;DHT22;50437;51.970;5.904;2023-07-28T00:13:05;17.80;99.90
64143;DHT22;50437;51.970;5.904;2023-07-28T00:15:31;17.80;99.90
64143;DHT22;50437;51.970;5.904;2023-07-28T00:17:57;17.80;99.90
64143;DHT22;50437;51.970;5.904;2023-07-28T00:20:25;17.80;99.90
64143;DHT22;50437;51.970;5.904;2023-07-28T00:22:52;17.80;99.90
64143;DHT22;50437;51.970;5.904;2023-07-28T00:25:18;17.80;99.90
64143;DHT22;50437;51.970;5.904;2023-07-28T00:27:44;17.80;99.90
64143;DHT22;50437;51.970;5.904;2023-07-28T00:30:11;17.80;99.90
64143;DHT22;50437;51.970;5.904;2023-07-28T00:32:37;17.80;99.90
64143;DHT22;50437;51.970;5.904;2023-07-28T00:35:03;17.80;99.90
64143;DHT22;50437;51.970;5.904;2023-07-28T00:37:29;17.80;99.90
64143;DHT22;50437;51.970;5.904;2023-07-28T00:39:55;17.80;99.90
64143;DHT22;50437;51.970;5.904;2023-07-28T00:42:21;17.80;99.90
64143;DHT22;50437;51.970;5.904;2023-07-28T00:44:47;17.80;99.90
64143;DHT22;50437;51.970;5.904;2023-07-28T00:47:14;17.90;99.90
64143;DHT22;50437;51.970;5.904;2023-07-28T00:49:40;17.90;99.90
64143;DHT22;50437;51.970;5.904;2023-07-28T00:52:07;17.90;99.90
64143;DHT22;50437;51.970;5.904;2023-07-28T00:54:34;17.80;99.90
64143;DHT22;50437;51.970;5.904;2023-07-28T00:57:01;17.80;99.90
64143;DHT22;50437;51.970;5.904;2023-07-28T00:59:27;17.80;99.90
64143;DHT22;50437;51.970;5.904;2023-07-28T01:01:53;17.80;99.90
64143;DHT22;50437;51.970;5.904;2023-07-28T01:04:19;17.90;99.90
64143;DHT22;50437;51.970;5.904;2023-07-28T01:07:09;17.90;99.90
64143;DHT22;50437;51.970;5.904;2023-07-28T01:09:37;17.80;99.90
64143;DHT22;50437;51.970;5.904;2023-07-28T01:12:06;17.80;99.90
64143;DHT22;50437;51.970;5.904;2023-07-28T01:14:33;17.90;99.90
64143;DHT22;50437;51.970;5.904;2023-07-28T01:16:59;17.90;99.90
64143;DHT22;50437;51.970;5.904;2023-07-28T01:19:25;17.90;99.90
64143;DHT22;50437;51.970;5.904;2023-07-28T01:21:57;17.80;99.90
64143;DHT22;50437;51.970;5.904;2023-07-28T01:24:49;17.80;99.90
64143;DHT22;50437;51.970;5.904;2023-07-28T01:27:15;17.80;99.90
64143;DHT22;50437;51.970;5.904;2023-07-28T01:29:41;17.80;99.90
64143;DHT22;50437;51.970;5.904;2023-07-28T01:32:07;17.80;99.90
64143;DHT22;50437;51.970;5.904;2023-07-28T01:34:33;17.90;99.90
64143;DHT22;50437;51.970;5.904;2023-07-28T01:36:59;17.90;99.90
64143;DHT22;50437;51.970;5.904;2023-07-28T01:39:25;17.80;99.90
64143;DHT22;50437;51.970;5.904;2023-07-28T01:41:51;17.80;99.90
64143;DHT22;50437;51.970;5.904;2023-07-28T01:44:17;17.90;99.90
64143;DHT22;50437;51.970;5.904;2023-07-28T01:46:43;17.90;99.90
64143;DHT22;50437;51.970;5.904;2023-07-28T01:49:09;17.80;99.90
64143;DHT22;50437;51.970;5.904;2023-07-28T01:51:35;17.90;99.90
64143;DHT22;50437;51.970;5.904;2023-07-28T01:54:01;17.90;99.90
64143;DHT22;50437;51.970;5.904;2023-07-28T01:56:26;17.80;99.90
64143;DHT22;50437;51.970;5.904;2023-07-28T01:58:52;17.90;99.90
64143;DHT22;50437;51.970;5.904;2023-07-28T02:01:18;17.80;99.90
64143;DHT22;50437;51.970;5.904;2023-07-28T02:03:44;17.90;99.90
64143;DHT22;50437;51.970;5.904;2023-07-28T02:06:10;17.90;99.90
64143;DHT22;50437;51.970;5.904;2023-07-28T02:08:36;17.90;99.90
64143;DHT22;50437;51.970;5.904;2023-07-28T02:11:02;17.90;99.90
64143;DHT22;50437;51.970;5.904;2023-07-28T02:13:28;17.90;99.90
64143;DHT22;50437;51.970;5.904;2023-07-28T02:15:54;17.80;99.90
64143;DHT22;50437;51.970;5.904;2023-07-28T02:18:20;17.90;99.90
64143;DHT22;50437;51.970;5.904;2023-07-28T02:20:49;17.90;99.90
64143;DHT22;50437;51.970;5.904;2023-07-28T02:23:15;17.90;99.90
64143;DHT22;50437;51.970;5.904;2023-07-28T02:25:41;17.90;99.90
64143;DHT22;50437;51.970;5.904;2023-07-28T02:28:09;17.90;99.90
64143;DHT22;50437;51.970;5.904;2023-07-28T02:30:35;17.90;99.90
64143;DHT22;50437;51.970;5.904;2023-07-28T02:33:01;17.90;99.90
64143;DHT22;50437;51.970;5.904;2023-07-28T02:35:27;17.90;99.90
64143;DHT22;50437;51.970;5.904;2023-07-28T02:37:53;17.90;99.90
64143;DHT22;50437;51.970;5.904;2023-07-28T02:40:19;17.90;99.90
64143;DHT22;50437;51.970;5.904;2023-07-28T02:42:45;17.90;99.90
64143;DHT22;50437;51.970;5.904;2023-07-28T02:45:11;17.90;99.90
64143;DHT22;50437;51.970;5.904;2023-07-28T02:47:37;17.90;99.90
64143;DHT22;50437;51.970;5.904;2023-07-28T02:50:04;17.90;99.90
64143;DHT22;50437;51.970;5.904;2023-07-28T02:52:30;17.90;99.90
64143;DHT22;50437;51.970;5.904;2023-07-28T02:54:56;17.90;99.90
64143;DHT22;50437;51.970;5.904;2023-07-28T02:57:22;17.90;99.90
64143;DHT22;50437;51.970;5.904;2023-07-28T02:59:48;17.90;99.90
64143;DHT22;50437;51.970;5.904;2023-07-28T03:02:15;17.90;99.90
64143;DHT22;50437;51.970;5.904;2023-07-28T03:04:41;17.90;99.90
64143;DHT22;50437;51.970;5.904;2023-07-28T03:07:16;17.90;99.90
64143;DHT22;50437;51.970;5.904;2023-07-28T03:09:45;17.90;99.90
64143;DHT22;50437;51.970;5.904;2023-07-28T03:12:12;17.90;99.90
64143;DHT22;50437;51.970;5.904;2023-07-28T03:14:39;17.90;99.90
64143;DHT22;50437;51.970;5.904;2023-07-28T03:17:05;18.00;99.90
64143;DHT22;50437;51.970;5.904;2023-07-28T03:19:31;18.00;99.90
64143;DHT22;50437;51.970;5.904;2023-07-28T03:21:57;17.90;99.90
64143;DHT22;50437;51.970;5.904;2023-07-28T03:24:25;17.90;99.90
64143;DHT22;50437;51.970;5.904;2023-07-28T03:26:51;17.90;99.90
64143;DHT22;50437;51.970;5.904;2023-07-28T03:29:17;18.00;99.90
64143;DHT22;50437;51.970;5.904;2023-07-28T03:31:44;18.00;99.90
64143;DHT22;50437;51.970;5.904;2023-07-28T03:34:10;17.90;99.90
64143;DHT22;50437;51.970;5.904;2023-07-28T03:36:36;18.00;99.90
64143;DHT22;50437;51.970;5.904;2023-07-28T03:39:02;17.90;99.90
64143;DHT22;50437;51.970;5.904;2023-07-28T03:41:29;17.90;99.90
64143;DHT22;50437;51.970;5.904;2023-07-28T03:43:55;17.90;99.90
64143;DHT22;50437;51.970;5.904;2023-07-28T03:46:21;17.90;99.90
64143;DHT22;50437;51.970;5.904;2023-07-28T03:48:47;17.90;99.90
64143;DHT22;50437;51.970;5.904;2023-07-28T03:51:13;18.00;99.90
64143;DHT22;50437;51.970;5.904;2023-07-28T03:53:39;18.00;99.90
64143;DHT22;50437;51.970;5.904;2023-07-28T03:56:05;18.00;99.90
64143;DHT22;50437;51.970;5.904;2023-07-28T03:58:31;18.00;99.90
64143;DHT22;50437;51.970;5.904;2023-07-28T04:00:57;17.90;99.90
64143;DHT22;50437;51.970;5.904;2023-07-28T04:03:23;17.90;99.90
64143;DHT22;50437;51.970;5.904;2023-07-28T04:05:49;18.00;99.90
64143;DHT22;50437;51.970;5.904;2023-07-28T04:08:15;17.90;99.90
64143;DHT22;50437;51.970;5.904;2023-07-28T04:10:42;17.90;99.90
64143;DHT22;50437;51.970;5.904;2023-07-28T04:13:08;18.00;99.90
64143;DHT22;50437;51.970;5.904;2023-07-28T04:15:34;17.90;99.90
64143;DHT22;50437;51.970;5.904;2023-07-28T04:18:01;17.90;99.90
64143;DHT22;50437;51.970;5.904;2023-07-28T04:20:26;18.00;99.90
64143;DHT22;50437;51.970;5.904;2023-07-28T04:22:52;17.90;99.90
64143;DHT22;50437;51.970;5.904;2023-07-28T04:25:18;17.90;99.90
64143;DHT22;50437;51.970;5.904;2023-07-28T04:27:47;17.90;99.90
64143;DHT22;50437;51.970;5.904;2023-07-28T04:30:13;17.90;99.90
64143;DHT22;50437;51.970;5.904;2023-07-28T04:32:39;17.90;99.90
64143;DHT22;50437;51.970;5.904;2023-07-28T04:35:12;17.90;99.90
64143;DHT22;50437;51.970;5.904;2023-07-28T04:37:49;17.80;99.90
64143;DHT22;50437;51.970;5.904;2023-07-28T04:40:22;17.90;99.90
64143;DHT22;50437;51.970;5.904;2023-07-28T04:42:48;17.90;99.90
64143;DHT22;50437;51.970;5.904;2023-07-28T04:45:18;17.90;99.90
64143;DHT22;50437;51.970;5.904;2023-07-28T04:47:44;17.90;99.90
64143;DHT22;50437;51.970;5.904;2023-07-28T04:50:11;17.90;99.90
64143;DHT22;50437;51.970;5.904;2023-07-28T04:52:56;18.00;99.90
64143;DHT22;50437;51.970;5.904;2023-07-28T04:55:40;18.00;99.90
64143;DHT22;50437;51.970;5.904;2023-07-28T04:58:06;18.00;99.90
64143;DHT22;50437;51.970;5.904;2023-07-28T05:00:44;18.00;99.90
64143;DHT22;50437;51.970;5.904;2023-07-28T05:03:10;17.90;99.90
64143;DHT22;50437;51.970;5.904;2023-07-28T05:05:43;18.00;99.90
64143;DHT22;50437;51.970;5.904;2023-07-28T05:08:10;18.00;99.90
64143;DHT22;50437;51.970;5.904;2023-07-28T05:10:36;18.00;99.90
64143;DHT22;50437;51.970;5.904;2023-07-28T05:13:02;18.00;99.90
64143;DHT22;50437;51.970;5.904;2023-07-28T05:15:30;18.00;99.90
64143;DHT22;50437;51.970;5.904;2023-07-28T05:17:56;18.00;99.90
64143;DHT22;50437;51.970;5.904;2023-07-28T05:20:45;18.00;99.90
64143;DHT22;50437;51.970;5.904;2023-07-28T05:23:13;18.00;99.90
64143;DHT22;50437;51.970;5.904;2023-07-28T05:25:39;18.00;99.90
64143;DHT22;50437;51.970;5.904;2023-07-28T05:28:05;18.00;99.90
64143;DHT22;50437;51.970;5.904;2023-07-28T05:30:33;18.00;99.90
64143;DHT22;50437;51.970;5.904;2023-07-28T05:32:59;18.00;99.90
64143;DHT22;50437;51.970;5.904;2023-07-28T05:35:35;18.10;99.90
64143;DHT22;50437;51.970;5.904;2023-07-28T05:38:01;18.00;99.90
64143;DHT22;50437;51.970;5.904;2023-07-28T05:40:27;18.10;99.90
64143;DHT22;50437;51.970;5.904;2023-07-28T05:42:53;18.10;99.90
64143;DHT22;50437;51.970;5.904;2023-07-28T05:45:19;18.00;99.90
64143;DHT22;50437;51.970;5.904;2023-07-28T05:47:45;18.10;99.90
64143;DHT22;50437;51.970;5.904;2023-07-28T05:50:11;18.10;99.90
64143;DHT22;50437;51.970;5.904;2023-07-28T05:52:37;18.00;99.90
64143;DHT22;50437;51.970;5.904;2023-07-28T05:55:03;18.10;99.90
64143;DHT22;50437;51.970;5.904;2023-07-28T05:57:29;18.10;99.90
64143;DHT22;50437;51.970;5.904;2023-07-28T05:59:55;18.10;99.90
64143;DHT22;50437;51.970;5.904;2023-07-28T06:02:21;18.10;99.90
64143;DHT22;50437;51.970;5.904;2023-07-28T06:04:53;18.20;99.90
64143;DHT22;50437;51.970;5.904;2023-07-28T06:07:19;18.20;99.90
64143;DHT22;50437;51.970;5.904;2023-07-28T06:09:44;18.30;99.90
64143;DHT22;50437;51.970;5.904;2023-07-28T06:12:10;18.10;99.90
64143;DHT22;50437;51.970;5.904;2023-07-28T06:14:36;18.20;99.90
64143;DHT22;50437;51.970;5.904;2023-07-28T06:17:05;18.30;99.90
64143;DHT22;50437;51.970;5.904;2023-07-28T06:19:33;18.30;99.90
64143;DHT22;50437;51.970;5.904;2023-07-28T06:21:59;18.30;99.90
64143;DHT22;50437;51.970;5.904;2023-07-28T06:24:26;18.30;99.90
64143;DHT22;50437;51.970;5.904;2023-07-28T06:26:52;18.40;99.90
64143;DHT22;50437;51.970;5.904;2023-07-28T06:29:18;18.30;99.90
64143;DHT22;50437;51.970;5.904;2023-07-28T06:31:44;18.40;99.90
64143;DHT22;50437;51.970;5.904;2023-07-28T06:34:10;18.40;99.90
64143;DHT22;50437;51.970;5.904;2023-07-28T06:36:36;18.40;99.90
64143;DHT22;50437;51.970;5.904;2023-07-28T06:39:02;18.40;99.90
64143;DHT22;50437;51.970;5.904;2023-07-28T06:41:28;18.40;99.90
64143;DHT22;50437;51.970;5.904;2023-07-28T06:43:59;18.40;99.90
64143;DHT22;50437;51.970;5.904;2023-07-28T06:46:25;18.40;99.90
64143;DHT22;50437;51.970;5.904;2023-07-28T06:48:51;18.40;99.90
64143;DHT22;50437;51.970;5.904;2023-07-28T06:51:17;18.40;99.90
64143;DHT22;50437;51.970;5.904;2023-07-28T06:53:43;18.50;99.90
64143;DHT22;50437;51.970;5.904;2023-07-28T06:56:09;18.40;99.90
64143;DHT22;50437;51.970;5.904;2023-07-28T06:58:35;18.40;99.90
64143;DHT22;50437;51.970;5.904;2023-07-28T07:01:01;18.40;99.90
64143;DHT22;50437;51.970;5.904;2023-07-28T07:03:27;18.40;99.90
64143;DHT22;50437;51.970;5.904;2023-07-28T07:05:53;18.40;99.90
64143;DHT22;50437;51.970;5.904;2023-07-28T07:08:19;18.40;99.90
64143;DHT22;50437;51.970;5.904;2023-07-28T07:10:48;18.40;99.90
64143;DHT22;50437;51.970;5.904;2023-07-28T07:13:16;18.40;99.90
64143;DHT22;50437;51.970;5.904;2023-07-28T07:15:42;18.40;99.90
64143;DHT22;50437;51.970;5.904;2023-07-28T07:18:08;18.60;99.90
64143;DHT22;50437;51.970;5.904;2023-07-28T07:20:35;18.70;99.90
64143;DHT22;50437;51.970;5.904;2023-07-28T07:23:01;18.90;99.90
64143;DHT22;50437;51.970;5.904;2023-07-28T07:25:27;18.90;99.90
64143;DHT22;50437;51.970;5.904;2023-07-28T07:27:53;19.10;99.90
64143;DHT22;50437;51.970;5.904;2023-07-28T07:30:19;19.20;99.90
64143;DHT22;50437;51.970;5.904;2023-07-28T07:32:45;19.10;99.90
64143;DHT22;50437;51.970;5.904;2023-07-28T07:35:11;19.20;99.90
64143;DHT22;50437;51.970;5.904;2023-07-28T07:37:38;19.00;99.90
64143;DHT22;50437;51.970;5.904;2023-07-28T07:40:05;19.20;99.90
64143;DHT22;50437;51.970;5.904;2023-07-28T07:42:42;19.20;99.90
64143;DHT22;50437;51.970;5.904;2023-07-28T07:45:09;19.30;99.90
64143;DHT22;50437;51.970;5.904;2023-07-28T07:47:35;19.30;99.90
64143;DHT22;50437;51.970;5.904;2023-07-28T07:50:01;19.20;99.90
64143;DHT22;50437;51.970;5.904;2023-07-28T07:52:28;19.20;99.90
64143;DHT22;50437;51.970;5.904;2023-07-28T07:54:54;19.20;99.90
64143;DHT22;50437;51.970;5.904;2023-07-28T07:57:21;19.30;99.90
64143;DHT22;50437;51.970;5.904;2023-07-28T07:59:46;19.40;99.90
64143;DHT22;50437;51.970;5.904;2023-07-28T08:02:12;19.50;99.90
64143;DHT22;50437;51.970;5.904;2023-07-28T08:04:38;19.50;99.90
64143;DHT22;50437;51.970;5.904;2023-07-28T08:07:04;19.60;99.90
64143;DHT22;50437;51.970;5.904;2023-07-28T08:09:30;19.60;99.90
64143;DHT22;50437;51.970;5.904;2023-07-28T08:11:56;19.40;99.90
64143;DHT22;50437;51.970;5.904;2023-07-28T08:14:22;19.50;99.90
64143;DHT22;50437;51.970;5.904;2023-07-28T08:16:48;19.50;99.90
64143;DHT22;50437;51.970;5.904;2023-07-28T08:19:14;19.50;99.90
64143;DHT22;50437;51.970;5.904;2023-07-28T08:21:40;19.50;99.90
64143;DHT22;50437;51.970;5.904;2023-07-28T08:24:06;19.40;99.90
64143;DHT22;50437;51.970;5.904;2023-07-28T08:26:32;19.40;99.90
64143;DHT22;50437;51.970;5.904;2023-07-28T08:28:58;19.50;99.90
64143;DHT22;50437;51.970;5.904;2023-07-28T08:31:24;19.70;99.90
64143;DHT22;50437;51.970;5.904;2023-07-28T08:33:50;19.80;99.90
64143;DHT22;50437;51.970;5.904;2023-07-28T08:36:16;19.60;99.90
64143;DHT22;50437;51.970;5.904;2023-07-28T08:38:42;19.50;99.90
64143;DHT22;50437;51.970;5.904;2023-07-28T08:41:11;19.40;99.90
64143;DHT22;50437;51.970;5.904;2023-07-28T08:43:37;19.50;99.90
64143;DHT22;50437;51.970;5.904;2023-07-28T08:46:03;19.50;99.90
64143;DHT22;50437;51.970;5.904;2023-07-28T08:48:29;19.50;99.90
64143;DHT22;50437;51.970;5.904;2023-07-28T08:50:55;19.60;99.90
64143;DHT22;50437;51.970;5.904;2023-07-28T08:53:21;19.40;99.90
64143;DHT22;50437;51.970;5.904;2023-07-28T08:55:47;19.60;99.90
64143;DHT22;50437;51.970;5.904;2023-07-28T08:58:20;20.00;99.90
64143;DHT22;50437;51.970;5.904;2023-07-28T09:00:47;20.30;99.90
64143;DHT22;50437;51.970;5.904;2023-07-28T09:03:15;20.50;99.90
64143;DHT22;50437;51.970;5.904;2023-07-28T09:05:45;20.40;99.90
64143;DHT22;50437;51.970;5.904;2023-07-28T09:08:12;20.30;99.90
64143;DHT22;50437;51.970;5.904;2023-07-28T09:10:42;20.30;99.90
64143;DHT22;50437;51.970;5.904;2023-07-28T09:13:11;20.50;99.90
64143;DHT22;50437;51.970;5.904;2023-07-28T09:15:38;20.30;99.90
64143;DHT22;50437;51.970;5.904;2023-07-28T09:18:06;20.10;99.90
64143;DHT22;50437;51.970;5.904;2023-07-28T09:20:34;20.10;99.90
64143;DHT22;50437;51.970;5.904;2023-07-28T09:23:01;20.00;99.90
64143;DHT22;50437;51.970;5.904;2023-07-28T09:25:28;20.10;99.90
64143;DHT22;50437;51.970;5.904;2023-07-28T09:27:55;20.20;99.90
64143;DHT22;50437;51.970;5.904;2023-07-28T09:30:21;20.30;99.90
64143;DHT22;50437;51.970;5.904;2023-07-28T09:32:49;20.40;99.90
64143;DHT22;50437;51.970;5.904;2023-07-28T09:35:16;20.60;99.90
64143;DHT22;50437;51.970;5.904;2023-07-28T09:37:43;20.60;99.90
64143;DHT22;50437;51.970;5.904;2023-07-28T09:40:11;20.60;99.90
64143;DHT22;50437;51.970;5.904;2023-07-28T09:42:41;20.80;99.90
64143;DHT22;50437;51.970;5.904;2023-07-28T09:45:08;21.20;99.90
64143;DHT22;50437;51.970;5.904;2023-07-28T09:47:34;21.10;99.90
64143;DHT22;50437;51.970;5.904;2023-07-28T09:50:02;21.50;99.90
64143;DHT22;50437;51.970;5.904;2023-07-28T09:52:30;21.80;99.90
64143;DHT22;50437;51.970;5.904;2023-07-28T09:54:56;22.20;99.90
64143;DHT22;50437;51.970;5.904;2023-07-28T09:57:25;22.50;99.90
64143;DHT22;50437;51.970;5.904;2023-07-28T09:59:51;22.80;99.90
64143;DHT22;50437;51.970;5.904;2023-07-28T10:02:19;22.40;99.90
64143;DHT22;50437;51.970;5.904;2023-07-28T10:04:45;22.40;99.90
64143;DHT22;50437;51.970;5.904;2023-07-28T10:07:11;22.20;99.90
64143;DHT22;50437;51.970;5.904;2023-07-28T10:09:38;22.30;99.90
64143;DHT22;50437;51.970;5.904;2023-07-28T10:12:04;22.50;99.90
64143;DHT22;50437;51.970;5.904;2023-07-28T10:14:33;23.20;99.90
64143;DHT22;50437;51.970;5.904;2023-07-28T10:17:00;24.10;99.90
64143;DHT22;50437;51.970;5.904;2023-07-28T10:19:28;25.20;99.90
64143;DHT22;50437;51.970;5.904;2023-07-28T10:22:01;25.20;99.90
64143;DHT22;50437;51.970;5.904;2023-07-28T10:27:19;26.60;99.90
64143;DHT22;50437;51.970;5.904;2023-07-28T10:29:56;26.20;99.90
64143;DHT22;50437;51.970;5.904;2023-07-28T10:32:27;26.60;99.90
64143;DHT22;50437;51.970;5.904;2023-07-28T10:35:01;26.40;99.90
64143;DHT22;50437;51.970;5.904;2023-07-28T10:37:28;26.20;99.90
64143;DHT22;50437;51.970;5.904;2023-07-28T10:42:39;25.20;99.90
64143;DHT22;50437;51.970;5.904;2023-07-28T10:45:06;25.40;99.90
64143;DHT22;50437;51.970;5.904;2023-07-28T10:47:32;25.60;99.90
64143;DHT22;50437;51.970;5.904;2023-07-28T10:50:02;26.00;99.90
64143;DHT22;50437;51.970;5.904;2023-07-28T10:52:28;26.40;99.90
64143;DHT22;50437;51.970;5.904;2023-07-28T10:54:57;27.10;99.90
64143;DHT22;50437;51.970;5.904;2023-07-28T10:57:23;26.40;99.90
64143;DHT22;50437;51.970;5.904;2023-07-28T10:59:51;26.90;99.90
64143;DHT22;50437;51.970;5.904;2023-07-28T11:02:17;26.40;99.90
64143;DHT22;50437;51.970;5.904;2023-07-28T11:04:46;26.30;99.90
64143;DHT22;50437;51.970;5.904;2023-07-28T11:07:15;26.30;99.90
64143;DHT22;50437;51.970;5.904;2023-07-28T11:09:41;26.00;99.90
64143;DHT22;50437;51.970;5.904;2023-07-28T11:12:08;24.90;99.90
64143;DHT22;50437;51.970;5.904;2023-07-28T11:14:34;24.00;99.90
64143;DHT22;50437;51.970;5.904;2023-07-28T11:17:01;23.90;99.90
64143;DHT22;50437;51.970;5.904;2023-07-28T11:19:27;23.80;99.90
64143;DHT22;50437;51.970;5.904;2023-07-28T11:21:54;24.00;99.90
64143;DHT22;50437;51.970;5.904;2023-07-28T11:24:20;24.00;99.90
64143;DHT22;50437;51.970;5.904;2023-07-28T11:26:46;24.20;99.90
64143;DHT22;50437;51.970;5.904;2023-07-28T11:29:13;24.10;99.90
64143;DHT22;50437;51.970;5.904;2023-07-28T11:31:40;24.10;99.90
64143;DHT22;50437;51.970;5.904;2023-07-28T11:34:13;24.40;99.90
64143;DHT22;50437;51.970;5.904;2023-07-28T11:36:40;24.60;99.90
64143;DHT22;50437;51.970;5.904;2023-07-28T11:39:06;24.40;99.90
64143;DHT22;50437;51.970;5.904;2023-07-28T11:41:32;24.20;99.90
64143;DHT22;50437;51.970;5.904;2023-07-28T11:43:59;24.30;99.90
64143;DHT22;50437;51.970;5.904;2023-07-28T11:46:36;24.10;99.90
64143;DHT22;50437;51.970;5.904;2023-07-28T11:49:12;24.20;99.90
64143;DHT22;50437;51.970;5.904;2023-07-28T11:51:42;24.60;99.90
64143;DHT22;50437;51.970;5.904;2023-07-28T11:54:13;24.80;99.90
64143;DHT22;50437;51.970;5.904;2023-07-28T11:56:43;25.00;99.90
64143;DHT22;50437;51.970;5.904;2023-07-28T11:59:09;25.30;99.90
64143;DHT22;50437;51.970;5.904;2023-07-28T12:01:50;25.60;99.90
64143;DHT22;50437;51.970;5.904;2023-07-28T12:04:23;25.70;99.90
64143;DHT22;50437;51.970;5.904;2023-07-28T12:09:29;25.70;99.90
64143;DHT22;50437;51.970;5.904;2023-07-28T12:11:56;25.50;99.90
64143;DHT22;50437;51.970;5.904;2023-07-28T12:14:32;25.70;99.90
64143;DHT22;50437;51.970;5.904;2023-07-28T12:16:58;25.30;99.90
64143;DHT22;50437;51.970;5.904;2023-07-28T12:19:25;24.70;99.90
64143;DHT22;50437;51.970;5.904;2023-07-28T12:21:51;25.00;99.90
64143;DHT22;50437;51.970;5.904;2023-07-28T12:24:17;25.10;99.90
64143;DHT22;50437;51.970;5.904;2023-07-28T12:26:42;24.70;99.90
64143;DHT22;50437;51.970;5.904;2023-07-28T12:29:09;24.90;99.90
64143;DHT22;50437;51.970;5.904;2023-07-28T12:31:35;24.90;99.90
64143;DHT22;50437;51.970;5.904;2023-07-28T12:34:01;24.80;99.90
64143;DHT22;50437;51.970;5.904;2023-07-28T12:36:26;24.70;99.90
64143;DHT22;50437;51.970;5.904;2023-07-28T12:38:53;24.90;99.90
64143;DHT22;50437;51.970;5.904;2023-07-28T12:41:19;24.80;99.90
64143;DHT22;50437;51.970;5.904;2023-07-28T12:43:46;25.20;99.90
64143;DHT22;50437;51.970;5.904;2023-07-28T12:46:11;25.20;99.90
64143;DHT22;50437;51.970;5.904;2023-07-28T12:48:37;25.50;99.90
64143;DHT22;50437;51.970;5.904;2023-07-28T12:51:04;25.50;99.90
64143;DHT22;50437;51.970;5.904;2023-07-28T12:53:30;25.70;99.90
64143;DHT22;50437;51.970;5.904;2023-07-28T12:55:56;25.50;99.90
64143;DHT22;50437;51.970;5.904;2023-07-28T12:58:22;25.20;99.90
64143;DHT22;50437;51.970;5.904;2023-07-28T13:00:48;25.10;99.90
64143;DHT22;50437;51.970;5.904;2023-07-28T13:03:14;25.80;99.90
64143;DHT22;50437;51.970;5.904;2023-07-28T13:05:40;26.40;99.90
64143;DHT22;50437;51.970;5.904;2023-07-28T13:08:08;26.80;99.90
64143;DHT22;50437;51.970;5.904;2023-07-28T13:10:34;26.40;99.90
64143;DHT22;50437;51.970;5.904;2023-07-28T13:13:00;26.00;99.90
64143;DHT22;50437;51.970;5.904;2023-07-28T13:15:26;25.40;99.90
64143;DHT22;50437;51.970;5.904;2023-07-28T13:17:52;25.50;99.90
64143;DHT22;50437;51.970;5.904;2023-07-28T13:20:18;25.40;99.90
64143;DHT22;50437;51.970;5.904;2023-07-28T13:22:44;25.60;99.90
64143;DHT22;50437;51.970;5.904;2023-07-28T13:25:10;26.00;99.90
64143;DHT22;50437;51.970;5.904;2023-07-28T13:27:36;26.00;99.90
64143;DHT22;50437;51.970;5.904;2023-07-28T13:30:02;26.30;99.90
64143;DHT22;50437;51.970;5.904;2023-07-28T13:32:31;26.40;99.90
64143;DHT22;50437;51.970;5.904;2023-07-28T13:34:57;26.10;99.90
64143;DHT22;50437;51.970;5.904;2023-07-28T13:37:23;26.40;99.90
64143;DHT22;50437;51.970;5.904;2023-07-28T13:39:49;26.00;99.90
64143;DHT22;50437;51.970;5.904;2023-07-28T13:42:15;26.30;99.90
64143;DHT22;50437;51.970;5.904;2023-07-28T13:44:42;26.40;99.90
64143;DHT22;50437;51.970;5.904;2023-07-28T13:47:08;26.00;99.90
64143;DHT22;50437;51.970;5.904;2023-07-28T13:49:34;26.30;99.90
64143;DHT22;50437;51.970;5.904;2023-07-28T13:52:02;26.80;99.90
64143;DHT22;50437;51.970;5.904;2023-07-28T13:54:28;27.00;99.90
64143;DHT22;50437;51.970;5.904;2023-07-28T13:56:54;26.60;99.90
64143;DHT22;50437;51.970;5.904;2023-07-28T13:59:20;26.10;99.90
64143;DHT22;50437;51.970;5.904;2023-07-28T14:01:46;26.40;99.90
64143;DHT22;50437;51.970;5.904;2023-07-28T14:04:12;26.70;99.90
64143;DHT22;50437;51.970;5.904;2023-07-28T14:06:39;26.50;99.90
64143;DHT22;50437;51.970;5.904;2023-07-28T14:09:05;26.40;99.90
64143;DHT22;50437;51.970;5.904;2023-07-28T14:11:31;26.40;99.90
64143;DHT22;50437;51.970;5.904;2023-07-28T14:13:57;25.90;99.90
64143;DHT22;50437;51.970;5.904;2023-07-28T14:16:23;25.70;99.90
64143;DHT22;50437;51.970;5.904;2023-07-28T14:18:49;26.30;99.90
64143;DHT22;50437;51.970;5.904;2023-07-28T14:21:16;26.30;99.90
64143;DHT22;50437;51.970;5.904;2023-07-28T14:23:42;25.90;99.90
64143;DHT22;50437;51.970;5.904;2023-07-28T14:26:08;26.00;99.90
64143;DHT22;50437;51.970;5.904;2023-07-28T14:28:34;26.00;99.90
64143;DHT22;50437;51.970;5.904;2023-07-28T14:30:59;25.80;99.90
64143;DHT22;50437;51.970;5.904;2023-07-28T14:33:26;25.70;99.90
64143;DHT22;50437;51.970;5.904;2023-07-28T14:35:52;25.60;99.90
64143;DHT22;50437;51.970;5.904;2023-07-28T14:38:19;25.50;99.90
64143;DHT22;50437;51.970;5.904;2023-07-28T14:40:45;25.30;99.90
64143;DHT22;50437;51.970;5.904;2023-07-28T14:43:15;25.30;99.90
64143;DHT22;50437;51.970;5.904;2023-07-28T14:45:41;25.10;99.90
64143;DHT22;50437;51.970;5.904;2023-07-28T14:48:07;25.40;99.90
64143;DHT22;50437;51.970;5.904;2023-07-28T14:50:33;25.40;99.90
64143;DHT22;50437;51.970;5.904;2023-07-28T14:52:59;25.40;99.90
64143;DHT22;50437;51.970;5.904;2023-07-28T14:55:26;25.50;99.90
64143;DHT22;50437;51.970;5.904;2023-07-28T14:57:52;25.30;99.90
64143;DHT22;50437;51.970;5.904;2023-07-28T15:00:18;25.50;99.90
64143;DHT22;50437;51.970;5.904;2023-07-28T15:02:44;25.70;99.90
64143;DHT22;50437;51.970;5.904;2023-07-28T15:05:10;25.30;99.90
64143;DHT22;50437;51.970;5.904;2023-07-28T15:07:36;25.10;99.90
64143;DHT22;50437;51.970;5.904;2023-07-28T15:10:02;24.90;99.90
64143;DHT22;50437;51.970;5.904;2023-07-28T15:12:29;24.70;99.90
64143;DHT22;50437;51.970;5.904;2023-07-28T15:14:55;24.70;99.90
64143;DHT22;50437;51.970;5.904;2023-07-28T15:17:21;24.40;99.90
64143;DHT22;50437;51.970;5.904;2023-07-28T15:19:47;24.50;99.90
64143;DHT22;50437;51.970;5.904;2023-07-28T15:22:13;24.30;99.90
64143;DHT22;50437;51.970;5.904;2023-07-28T15:24:39;24.20;99.90
64143;DHT22;50437;51.970;5.904;2023-07-28T15:27:05;24.30;99.90
64143;DHT22;50437;51.970;5.904;2023-07-28T15:29:31;24.50;99.90
64143;DHT22;50437;51.970;5.904;2023-07-28T15:31:57;24.50;99.90
64143;DHT22;50437;51.970;5.904;2023-07-28T15:34:23;24.50;99.90
64143;DHT22;50437;51.970;5.904;2023-07-28T15:36:49;24.50;99.90